Time;durP1;ratioP1;P1;durP2;ratioP2;P2;SDS_P1;SDS_P2;PMS_P1;PMS_P2;Temp;Humidity;BMP_temperature;BMP_pressure;BME280_temperature;BME280_humidity;BME280_pressure;Samples;Min_cycle;Max_cycle;Signal;HPM_P1;HPM_P2
2023/06/02 00:04:01;;;;;;;7.33;2.50;;;22.70;99.10;;;;;;6143066;23;20254;-95
2023/06/02 00:06:34;;;;;;;5.07;2.50;;;22.50;99.40;;;;;;6130967;23;20205;-94
2023/06/02 00:09:06;;;;;;;2.80;2.10;;;22.70;99.20;;;;;;6132275;23;20180;-95
2023/06/02 00:11:41;;;;;;;2.80;2.10;;;22.70;98.60;;;;;;6134231;23;20458;-94
2023/06/02 00:14:15;;;;;;;4.93;2.27;;;22.70;99.50;;;;;;6131443;23;20229;-94
2023/06/02 00:16:48;;;;;;;4.93;2.37;;;22.80;99.90;;;;;;6131248;23;20233;-94
2023/06/02 00:19:23;;;;;;;2.67;2.23;;;22.90;99.40;;;;;;6132102;23;20194;-93
2023/06/02 00:21:57;;;;;;;5.00;2.10;;;22.90;99.90;;;;;;6132263;23;20194;-93
2023/06/02 00:24:34;;;;;;;3.50;2.50;;;22.90;99.60;;;;;;6105485;23;20184;-94
2023/06/02 00:27:07;;;;;;;2.80;2.33;;;22.90;99.90;;;;;;6132578;23;20198;-95
2023/06/02 00:29:38;;;;;;;2.83;2.30;;;22.90;98.60;;;;;;6132209;23;20180;-95
2023/06/02 00:32:14;;;;;;;3.03;2.17;;;22.70;99.40;;;;;;6135164;23;20190;-95
2023/06/02 00:34:49;;;;;;;3.90;2.43;;;22.70;99.60;;;;;;6150592;23;20181;-94
2023/06/02 00:37:24;;;;;;;3.67;2.30;;;22.20;98.70;;;;;;6148793;23;20218;-92
2023/06/02 00:39:55;;;;;;;5.63;2.20;;;21.70;99.90;;;;;;6139422;23;20234;-93
2023/06/02 00:42:27;;;;;;;3.70;2.27;;;21.40;99.90;;;;;;6133939;23;20170;-93
2023/06/02 00:45:02;;;;;;;5.33;2.63;;;21.60;99.90;;;;;;6134457;23;20204;-94
2023/06/02 00:47:34;;;;;;;4.50;2.63;;;21.70;99.80;;;;;;6134781;23;20178;-95
2023/06/02 00:50:12;;;;;;;3.80;2.40;;;22.10;99.00;;;;;;6139603;23;20166;-94
2023/06/02 00:52:47;;;;;;;3.23;2.20;;;22.00;98.60;;;;;;6133622;23;20260;-94
2023/06/02 00:55:19;;;;;;;2.77;2.00;;;22.30;98.70;;;;;;6134074;23;20174;-93
2023/06/02 00:57:53;;;;;;;5.73;2.37;;;22.90;98.10;;;;;;6042055;23;2445063;-94
2023/06/02 01:00:25;;;;;;;8.40;2.53;;;23.50;98.10;;;;;;6151325;23;20206;-95
2023/06/02 01:03:02;;;;;;;3.73;2.40;;;23.90;96.80;;;;;;6151724;23;20155;-93
2023/06/02 01:05:46;;;;;;;5.27;2.30;;;24.00;97.00;;;;;;6140960;23;20166;-94
2023/06/02 01:08:19;;;;;;;6.57;3.40;;;23.90;95.90;;;;;;6135725;23;20178;-94
2023/06/02 01:10:55;;;;;;;5.13;2.60;;;24.00;97.00;;;;;;6113331;23;20174;-94
2023/06/02 01:13:27;;;;;;;3.00;2.27;;;23.50;96.00;;;;;;6132375;23;20247;-96
2023/06/02 01:15:59;;;;;;;4.07;2.20;;;23.50;96.50;;;;;;6133096;23;20181;-95
2023/06/02 01:18:35;;;;;;;3.80;2.50;;;23.80;97.30;;;;;;6133645;23;20176;-93
2023/06/02 01:21:11;;;;;;;3.80;2.30;;;24.00;96.70;;;;;;6133633;23;20571;-93
2023/06/02 01:23:49;;;;;;;3.93;2.37;;;24.40;97.50;;;;;;6134710;23;20257;-95
2023/06/02 01:26:23;;;;;;;4.57;2.20;;;24.70;97.00;;;;;;6136128;23;20643;-94
2023/06/02 01:28:55;;;;;;;4.37;2.20;;;24.80;95.60;;;;;;6133757;23;20178;-95
2023/06/02 01:31:32;;;;;;;2.80;2.30;;;24.70;95.60;;;;;;6135094;23;20189;-95
2023/06/02 01:34:19;;;;;;;3.00;2.13;;;24.90;95.00;;;;;;6133852;23;20186;-95
2023/06/02 01:36:58;;;;;;;2.50;2.30;;;24.10;94.20;;;;;;6134442;23;20189;-96
2023/06/02 01:39:33;;;;;;;5.47;2.27;;;23.40;94.60;;;;;;6133844;23;20214;-95
2023/06/02 01:42:07;;;;;;;6.13;2.10;;;23.10;94.90;;;;;;6136442;23;20180;-95
2023/06/02 01:44:43;;;;;;;2.83;2.10;;;22.50;96.00;;;;;;6130753;23;20178;-93
2023/06/02 01:47:18;;;;;;;4.63;2.40;;;22.70;96.20;;;;;;6131726;23;20173;-94
2023/06/02 01:49:51;;;;;;;4.13;2.30;;;23.00;96.50;;;;;;6107159;23;20260;-95
2023/06/02 01:52:27;;;;;;;4.07;2.40;;;23.60;95.80;;;;;;6132003;23;20237;-95
2023/06/02 01:55:02;;;;;;;4.00;2.37;;;23.50;96.00;;;;;;6131741;23;20176;-94
2023/06/02 01:57:38;;;;;;;6.77;2.80;;;23.50;95.60;;;;;;6133120;23;20218;-95
2023/06/02 02:00:11;;;;;;;3.40;2.30;;;23.60;95.40;;;;;;6132394;23;20205;-95
2023/06/02 02:02:43;;;;;;;4.03;2.50;;;23.20;95.70;;;;;;6134753;23;20216;-94
2023/06/02 02:05:15;;;;;;;3.20;2.60;;;22.90;96.10;;;;;;6134695;23;20178;-95
2023/06/02 02:10:42;;;;;;;2.80;2.20;;;22.30;97.20;;;;;;6130845;23;20633;-95
2023/06/02 02:13:14;;;;;;;4.10;2.50;;;21.80;97.20;;;;;;6136037;23;20189;-96
2023/06/02 02:15:46;;;;;;;4.10;2.50;;;21.60;97.70;;;;;;6137091;23;20232;-95
2023/06/02 02:18:28;;;;;;;6.77;2.50;;;21.60;98.00;;;;;;6134284;23;20186;-95
2023/06/02 02:21:00;;;;;;;2.80;2.20;;;21.40;98.30;;;;;;6139227;23;20197;-96
2023/06/02 02:23:33;;;;;;;3.87;2.07;;;21.50;98.10;;;;;;6137968;23;20582;-95
2023/06/02 02:26:09;;;;;;;3.47;2.30;;;21.40;97.80;;;;;;6111044;23;20186;-96
2023/06/02 02:28:42;;;;;;;3.70;2.60;;;21.10;98.60;;;;;;6110582;23;20238;-95
2023/06/02 02:31:31;;;;;;;3.47;2.23;;;20.70;99.00;;;;;;6138311;23;20175;-96
2023/06/02 02:34:07;;;;;;;3.63;2.27;;;20.50;98.90;;;;;;6136639;23;20273;-95
2023/06/02 02:36:44;;;;;;;3.60;2.60;;;20.10;99.40;;;;;;6136764;23;20673;-95
2023/06/02 02:39:17;;;;;;;5.30;2.03;;;19.80;99.30;;;;;;6134322;23;20233;-96
2023/06/02 02:42:18;;;;;;;3.67;2.03;;;19.70;98.10;;;;;;6120883;23;20166;-95
2023/06/02 02:44:51;;;;;;;4.63;2.30;;;19.50;97.20;;;;;;6150860;23;20190;-94
2023/06/02 02:47:24;;;;;;;3.67;2.20;;;19.40;96.70;;;;;;6126975;23;20159;-93
2023/06/02 02:49:56;;;;;;;2.93;2.17;;;19.30;97.20;;;;;;6138327;23;20186;-96
2023/06/02 02:52:29;;;;;;;4.50;2.53;;;19.10;98.30;;;;;;6117032;23;20202;-96
2023/06/02 02:55:03;;;;;;;4.43;2.40;;;18.90;97.50;;;;;;6143398;23;20201;-95
2023/06/02 02:57:39;;;;;;;3.77;2.20;;;18.90;98.00;;;;;;6143642;23;20197;-96
2023/06/02 03:00:13;;;;;;;3.90;2.50;;;18.80;97.50;;;;;;6147803;23;20217;-95
2023/06/02 03:02:45;;;;;;;6.83;2.10;;;18.70;96.90;;;;;;6148787;23;20170;-94
2023/06/02 03:05:19;;;;;;;2.80;2.10;;;18.60;97.50;;;;;;6148850;23;20291;-96
2023/06/02 03:07:52;;;;;;;3.67;2.30;;;18.50;98.50;;;;;;6144950;23;20185;-96
2023/06/02 03:10:29;;;;;;;2.53;1.80;;;18.40;98.70;;;;;;6143766;23;20189;-96
2023/06/02 03:13:06;;;;;;;3.87;2.10;;;18.40;98.40;;;;;;6143526;23;20205;-96
2023/06/02 03:15:38;;;;;;;2.80;2.13;;;18.30;98.00;;;;;;6142823;23;20178;-94
2023/06/02 03:20:58;;;;;;;6.67;2.60;;;18.10;99.50;;;;;;6142309;23;20205;-96
2023/06/02 03:23:31;;;;;;;5.93;2.80;;;18.00;99.90;;;;;;6141362;23;20701;-96
2023/06/02 03:29:15;;;;;;;8.30;4.40;;;17.70;99.90;;;;;;6136918;23;20182;-96
2023/06/02 03:31:54;;;;;;;5.30;2.47;;;17.50;99.90;;;;;;6136883;23;20202;-96
2023/06/02 03:34:31;;;;;;;4.13;2.40;;;17.20;99.90;;;;;;6134995;23;20189;-96
2023/06/02 03:37:11;;;;;;;3.87;2.20;;;17.10;99.90;;;;;;6140503;23;20166;-95
2023/06/02 03:39:45;;;;;;;2.87;2.17;;;17.00;99.90;;;;;;6134549;23;20185;-95
2023/06/02 03:42:29;;;;;;;7.00;2.83;;;17.10;99.90;;;;;;6137793;23;20179;-95
2023/06/02 03:45:31;;;;;;;6.60;2.60;;;17.10;99.90;;;;;;6133689;23;20614;-96
2023/06/02 03:48:05;;;;;;;6.90;2.43;;;16.90;99.90;;;;;;6132073;23;20260;-96
2023/06/02 03:50:47;;;;;;;3.80;2.17;;;16.70;99.90;;;;;;6133473;23;20210;-95
2023/06/02 03:53:21;;;;;;;5.13;2.40;;;16.60;99.90;;;;;;6109954;23;20240;-96
2023/06/02 03:55:58;;;;;;;6.10;2.23;;;16.50;99.90;;;;;;6136317;23;20209;-96
2023/06/02 03:59:26;;;;;;;5.10;2.50;;;16.40;99.90;;;;;;6136519;23;20186;-96
2023/06/02 04:02:14;;;;;;;4.17;2.13;;;16.30;99.90;;;;;;6141498;23;20218;-96
2023/06/02 04:07:44;;;;;;;6.53;2.60;;;16.10;99.90;;;;;;6138730;23;20190;-96
2023/06/02 04:10:30;;;;;;;5.77;2.87;;;16.00;99.90;;;;;;6112893;23;20178;-94
2023/06/02 04:13:03;;;;;;;4.60;2.40;;;15.90;99.90;;;;;;6133219;23;20565;-95
2023/06/02 04:15:37;;;;;;;4.90;2.70;;;15.70;99.90;;;;;;6130755;23;20190;-94
2023/06/02 04:18:14;;;;;;;4.10;2.63;;;15.70;99.90;;;;;;6105073;23;20182;-93
2023/06/02 04:20:48;;;;;;;4.03;2.90;;;15.70;99.90;;;;;;6132272;23;20205;-96
2023/06/02 04:23:21;;;;;;;4.97;2.73;;;15.70;99.90;;;;;;6136974;23;20177;-96
2023/06/02 04:25:54;;;;;;;3.37;2.10;;;15.70;99.90;;;;;;6134869;23;20174;-94
2023/06/02 04:28:26;;;;;;;5.03;2.60;;;15.60;99.90;;;;;;6119035;23;20225;-95
2023/06/02 04:31:05;;;;;;;6.57;2.70;;;15.60;99.90;;;;;;6133633;23;20517;-96
2023/06/02 04:36:27;;;;;;;3.37;2.47;;;15.40;99.90;;;;;;6131573;23;20186;-96
2023/06/02 04:39:02;;;;;;;3.77;2.20;;;15.40;99.90;;;;;;6135530;23;20165;-96
2023/06/02 04:41:38;;;;;;;2.53;2.00;;;15.30;99.90;;;;;;6137109;23;20197;-96
2023/06/02 04:44:22;;;;;;;3.83;2.00;;;15.20;99.90;;;;;;6138252;23;20181;-95
2023/06/02 04:46:55;;;;;;;2.80;1.83;;;15.10;99.90;;;;;;6145389;23;20218;-96
2023/06/02 04:49:35;;;;;;;5.90;2.17;;;15.00;99.90;;;;;;6142833;23;20175;-95
2023/06/02 04:52:09;;;;;;;3.17;1.90;;;14.90;99.90;;;;;;6149980;23;20177;-96
2023/06/02 04:54:40;;;;;;;4.60;2.10;;;14.90;99.90;;;;;;6147890;23;20178;-96
2023/06/02 04:57:25;;;;;;;2.73;1.83;;;14.70;99.90;;;;;;6147985;23;20213;-96
2023/06/02 04:59:58;;;;;;;3.93;2.10;;;14.70;99.90;;;;;;6203419;23;20185;-96
2023/06/02 05:02:35;;;;;;;3.97;1.77;;;14.50;99.90;;;;;;6207111;23;20200;-96
2023/06/02 05:05:12;;;;;;;7.17;2.10;;;14.40;99.90;;;;;;6194579;23;20177;-96
2023/06/02 05:07:58;;;;;;;4.03;2.20;;;14.40;99.90;;;;;;6192798;23;20173;-95
2023/06/02 05:10:31;;;;;;;1.97;1.57;;;14.30;99.90;;;;;;6192045;23;20184;-96
2023/06/02 05:13:08;;;;;;;2.77;1.80;;;14.20;99.90;;;;;;6192291;23;20194;-96
2023/06/02 05:15:40;;;;;;;3.93;1.90;;;14.10;99.90;;;;;;6192383;23;20195;-95
2023/06/02 05:18:14;;;;;;;4.50;1.77;;;14.10;99.90;;;;;;6190947;23;20184;-95
2023/06/02 05:20:58;;;;;;;4.40;1.80;;;14.00;99.90;;;;;;6193004;23;20227;-94
2023/06/02 05:23:36;;;;;;;2.47;1.60;;;13.90;99.90;;;;;;6192915;23;20161;-96
2023/06/02 05:26:08;;;;;;;3.40;1.60;;;13.80;99.90;;;;;;6195050;23;20177;-96
2023/06/02 05:28:40;;;;;;;5.10;1.90;;;13.70;99.90;;;;;;6191383;23;20256;-95
2023/06/02 05:31:14;;;;;;;4.83;1.87;;;13.60;99.90;;;;;;6192102;23;20227;-96
2023/06/02 05:33:50;;;;;;;4.03;1.60;;;13.60;99.90;;;;;;6192476;23;20194;-96
2023/06/02 05:36:27;;;;;;;3.20;1.60;;;13.50;99.90;;;;;;6191951;23;20181;-96
2023/06/02 05:38:59;;;;;;;3.80;1.77;;;13.40;99.90;;;;;;6191430;23;20176;-95
2023/06/02 05:41:33;;;;;;;3.13;1.70;;;13.30;99.90;;;;;;6192793;23;20228;-95
2023/06/02 05:44:06;;;;;;;2.93;1.67;;;13.30;99.90;;;;;;6192900;23;20249;-96
2023/06/02 05:46:44;;;;;;;6.37;1.70;;;13.30;99.90;;;;;;6167034;23;20181;-96
2023/06/02 05:49:16;;;;;;;4.83;1.27;;;13.20;99.90;;;;;;6192231;23;20177;-96
2023/06/02 05:51:50;;;;;;;3.10;1.37;;;13.10;99.90;;;;;;6196923;23;20235;-96
2023/06/02 05:54:25;;;;;;;3.27;1.37;;;13.10;99.90;;;;;;6196228;23;20183;-96
2023/06/02 05:56:58;;;;;;;3.47;1.33;;;13.00;99.90;;;;;;6198066;23;20185;-95
2023/06/02 05:59:45;;;;;;;5.00;1.77;;;12.90;99.90;;;;;;6205817;23;20160;-96
2023/06/02 06:02:20;;;;;;;5.77;1.57;;;12.90;99.90;;;;;;6206533;23;20201;-96
2023/06/02 06:07:50;;;;;;;3.20;1.23;;;12.80;99.90;;;;;;6207980;23;20196;-96
2023/06/02 06:10:35;;;;;;;4.83;1.70;;;12.70;99.90;;;;;;6181259;23;20177;-96
2023/06/02 06:13:08;;;;;;;5.37;1.70;;;12.70;99.90;;;;;;6203392;23;20184;-95
2023/06/02 06:15:55;;;;;;;4.03;1.50;;;12.60;99.90;;;;;;6201113;23;20207;-96
2023/06/02 06:21:25;;;;;;;5.90;1.50;;;12.50;99.90;;;;;;6199615;23;20200;-96
2023/06/02 06:26:50;;;;;;;4.87;1.50;;;12.40;99.90;;;;;;6202913;23;20272;-95
2023/06/02 06:29:26;;;;;;;3.20;1.50;;;12.30;99.90;;;;;;6204490;23;20172;-96
2023/06/02 06:32:03;;;;;;;3.37;1.57;;;12.20;99.90;;;;;;6203371;23;20229;-96
2023/06/02 06:34:38;;;;;;;3.53;1.30;;;12.20;99.90;;;;;;6205764;23;20180;-95
2023/06/02 06:37:29;;;;;;;2.83;1.50;;;12.20;99.90;;;;;;6182934;23;20233;-95
2023/06/02 06:40:09;;;;;;;6.10;1.60;;;12.20;99.90;;;;;;6210406;23;20177;-95
2023/06/02 06:42:45;;;;;;;5.23;1.30;;;12.10;99.90;;;;;;6211384;23;20215;-96
2023/06/02 06:45:19;;;;;;;3.00;1.47;;;12.10;99.90;;;;;;6212699;23;20156;-96
2023/06/02 06:47:55;;;;;;;4.57;1.70;;;12.10;99.90;;;;;;6212690;23;20172;-96
2023/06/02 06:50:31;;;;;;;3.30;1.40;;;12.00;99.90;;;;;;6213010;23;20177;-95
2023/06/02 06:53:05;;;;;;;2.33;1.50;;;12.00;99.90;;;;;;6212332;23;20221;-96
2023/06/02 06:55:45;;;;;;;5.57;1.80;;;11.90;99.90;;;;;;6212150;23;20173;-96
2023/06/02 06:58:22;;;;;;;5.33;1.90;;;11.90;99.90;;;;;;6187119;23;20177;-95
2023/06/02 07:00:54;;;;;;;5.80;1.83;;;11.80;99.90;;;;;;6212993;23;20168;-96
2023/06/02 07:03:27;;;;;;;6.60;1.77;;;11.80;99.90;;;;;;6213170;23;20177;-96
2023/06/02 07:06:01;;;;;;;4.17;1.67;;;11.70;99.90;;;;;;6213615;23;20173;-96
2023/06/02 07:08:37;;;;;;;6.03;1.80;;;11.70;99.90;;;;;;6212182;23;20169;-96
2023/06/02 07:11:14;;;;;;;5.07;1.80;;;11.70;99.90;;;;;;6209184;23;20173;-96
2023/06/02 07:13:49;;;;;;;4.60;1.57;;;11.70;99.90;;;;;;6211511;23;20164;-96
2023/06/02 07:16:34;;;;;;;3.83;1.80;;;11.60;99.90;;;;;;6212352;23;20184;-96
2023/06/02 07:19:07;;;;;;;6.30;1.67;;;11.50;99.90;;;;;;6211271;23;20187;-96
2023/06/02 07:21:40;;;;;;;5.90;1.97;;;11.50;99.90;;;;;;6212471;23;20196;-95
2023/06/02 07:24:30;;;;;;;3.43;1.80;;;11.50;99.90;;;;;;6206140;23;20168;-96
2023/06/02 07:27:18;;;;;;;3.07;1.57;;;11.50;99.90;;;;;;6212061;23;20187;-96
2023/06/02 07:29:53;;;;;;;6.83;1.90;;;11.50;99.90;;;;;;6210981;23;20164;-95
2023/06/02 07:32:26;;;;;;;4.70;1.60;;;11.40;99.90;;;;;;6211588;23;20187;-96
2023/06/02 07:35:05;;;;;;;3.80;1.40;;;11.30;99.90;;;;;;6188303;23;20240;-95
2023/06/02 07:37:43;;;;;;;5.67;1.93;;;11.30;99.90;;;;;;6209991;23;20169;-96
2023/06/02 07:40:19;;;;;;;2.83;1.70;;;11.20;99.90;;;;;;6212583;23;20176;-95
2023/06/02 07:42:53;;;;;;;6.63;1.70;;;11.10;99.90;;;;;;6188116;23;20189;-96
2023/06/02 07:45:29;;;;;;;4.23;1.80;;;11.10;99.90;;;;;;6213082;23;20216;-96
2023/06/02 07:48:01;;;;;;;5.27;1.90;;;11.00;99.90;;;;;;6211967;23;20391;-96
2023/06/02 07:50:38;;;;;;;4.43;1.60;;;11.00;99.90;;;;;;6212431;23;20192;-96
2023/06/02 07:53:10;;;;;;;3.57;1.23;;;11.00;99.90;;;;;;6213229;23;20209;-95
2023/06/02 07:55:46;;;;;;;5.70;1.70;;;11.00;99.90;;;;;;6210711;23;20160;-96
2023/06/02 07:58:33;;;;;;;5.03;2.27;;;10.90;99.90;;;;;;6207768;23;20185;-96
2023/06/02 08:01:19;;;;;;;4.30;1.80;;;11.00;99.90;;;;;;6207960;23;20169;-95
2023/06/02 08:03:51;;;;;;;5.87;2.03;;;10.90;99.90;;;;;;6206725;23;20209;-96
2023/06/02 08:06:27;;;;;;;3.47;1.60;;;10.90;99.90;;;;;;6210800;23;20173;-96
2023/06/02 08:09:04;;;;;;;4.87;1.97;;;10.90;99.90;;;;;;6208471;23;20177;-93
2023/06/02 08:11:39;;;;;;;4.60;2.00;;;10.90;99.90;;;;;;6204799;23;20181;-96
2023/06/02 08:14:19;;;;;;;4.40;1.67;;;10.80;99.90;;;;;;6200607;23;20444;-96
2023/06/02 08:16:55;;;;;;;4.40;2.20;;;10.80;99.90;;;;;;6196675;23;20240;-96
2023/06/02 08:19:30;;;;;;;4.63;1.93;;;10.70;99.90;;;;;;6195229;23;20180;-96
2023/06/02 08:22:03;;;;;;;3.40;1.63;;;10.70;99.90;;;;;;6196769;23;20177;-96
2023/06/02 08:24:36;;;;;;;3.33;1.30;;;10.60;99.90;;;;;;6194271;23;20177;-96
2023/06/02 08:27:09;;;;;;;6.57;2.30;;;10.60;99.90;;;;;;6193432;23;20181;-96
2023/06/02 08:29:45;;;;;;;5.67;1.90;;;10.60;99.90;;;;;;6193199;23;20196;-96
2023/06/02 08:32:20;;;;;;;6.70;1.80;;;10.60;99.90;;;;;;6192741;23;20203;-96
2023/06/02 08:35:07;;;;;;;5.20;1.80;;;10.60;99.90;;;;;;6172000;23;20181;-96
2023/06/02 08:37:38;;;;;;;5.27;2.10;;;10.60;99.90;;;;;;6194306;23;20225;-95
2023/06/02 08:40:20;;;;;;;5.20;1.83;;;10.60;99.90;;;;;;6194794;23;20204;-96
2023/06/02 08:42:57;;;;;;;4.10;1.70;;;10.60;99.90;;;;;;6194394;23;20261;-96
2023/06/02 08:45:35;;;;;;;4.10;1.90;;;10.60;99.90;;;;;;6195972;23;20176;-96
2023/06/02 08:48:09;;;;;;;3.40;1.60;;;10.60;99.90;;;;;;6192859;23;20180;-94
2023/06/02 08:50:48;;;;;;;4.40;2.00;;;10.50;99.90;;;;;;6194944;23;20197;-95
2023/06/02 08:53:23;;;;;;;4.20;1.60;;;10.50;99.90;;;;;;6192999;23;20247;-95
2023/06/02 08:55:56;;;;;;;5.00;2.30;;;10.40;99.90;;;;;;6193932;23;20177;-94
2023/06/02 08:58:31;;;;;;;5.60;2.00;;;10.40;99.90;;;;;;6193399;23;20200;-94
2023/06/02 09:01:09;;;;;;;4.10;2.00;;;10.30;99.90;;;;;;6194791;23;20177;-95
2023/06/02 09:03:45;;;;;;;8.47;2.20;;;10.30;99.90;;;;;;6193379;23;20583;-95
2023/06/02 09:06:22;;;;;;;3.90;1.60;;;10.20;99.90;;;;;;6192940;23;20196;-95
2023/06/02 09:09:03;;;;;;;5.03;2.03;;;10.20;99.90;;;;;;6192250;23;20183;-95
2023/06/02 09:11:36;;;;;;;5.30;1.47;;;10.20;99.90;;;;;;6198486;23;20196;-95
2023/06/02 09:14:21;;;;;;;5.63;2.10;;;10.20;99.90;;;;;;6206223;23;20225;-95
2023/06/02 09:16:57;;;;;;;4.67;1.70;;;10.20;99.90;;;;;;6211246;23;20169;-95
2023/06/02 09:19:49;;;;;;;6.50;1.83;;;10.20;99.90;;;;;;6204950;23;20169;-96
2023/06/02 09:22:32;;;;;;;6.13;1.70;;;10.20;99.90;;;;;;6198696;23;20240;-95
2023/06/02 09:25:24;;;;;;;5.10;1.80;;;10.20;99.90;;;;;;6170369;23;20231;-96
2023/06/02 09:27:57;;;;;;;5.23;1.80;;;10.20;99.90;;;;;;6165094;23;20241;-94
2023/06/02 09:30:30;;;;;;;4.37;1.90;;;10.00;99.90;;;;;;6199119;23;20176;-95
2023/06/02 09:33:17;;;;;;;3.83;2.00;;;10.00;99.90;;;;;;6197275;23;20703;-95
2023/06/02 09:35:53;;;;;;;4.37;1.77;;;10.00;99.90;;;;;;6193255;23;20184;-95
2023/06/02 09:38:25;;;;;;;6.33;2.37;;;9.90;99.90;;;;;;6191524;23;20208;-96
2023/06/02 09:40:57;;;;;;;3.93;1.50;;;9.90;99.90;;;;;;6193227;23;20181;-96
2023/06/02 09:46:18;;;;;;;5.73;1.83;;;9.80;99.90;;;;;;6191247;23;20181;-95
2023/06/02 09:49:00;;;;;;;7.47;2.10;;;9.70;99.90;;;;;;6189555;23;20183;-95
2023/06/02 09:51:35;;;;;;;3.20;1.53;;;9.70;99.90;;;;;;6169096;23;20177;-95
2023/06/02 09:54:10;;;;;;;2.80;1.60;;;9.70;99.90;;;;;;6193814;23;20172;-95
2023/06/02 09:56:43;;;;;;;4.23;1.63;;;9.70;99.90;;;;;;6190938;23;20255;-96
2023/06/02 09:59:16;;;;;;;4.40;1.80;;;9.70;99.90;;;;;;6166920;23;20895;-95
2023/06/02 10:01:58;;;;;;;4.03;1.40;;;9.60;99.90;;;;;;6193816;23;20189;-95
2023/06/02 10:04:33;;;;;;;4.70;1.67;;;9.60;99.90;;;;;;6193032;23;20239;-96
2023/06/02 10:07:17;;;;;;;4.60;1.73;;;9.70;99.90;;;;;;6192996;23;20585;-96
2023/06/02 10:10:04;;;;;;;6.73;1.70;;;9.70;99.90;;;;;;6192583;23;20184;-95
2023/06/02 10:12:53;;;;;;;4.03;1.73;;;9.70;99.90;;;;;;6192742;23;20208;-95
2023/06/02 10:15:52;;;;;;;4.07;1.53;;;9.70;99.90;;;;;;6194263;23;20181;-95
2023/06/02 10:18:44;;;;;;;3.03;1.83;;;9.60;99.90;;;;;;6195555;23;20197;-96
2023/06/02 10:21:36;;;;;;;4.63;1.43;;;9.60;99.90;;;;;;6167542;23;20177;-95
2023/06/02 10:24:25;;;;;;;3.33;1.57;;;9.50;99.90;;;;;;6194548;23;20209;-94
2023/06/02 10:27:18;;;;;;;4.67;1.73;;;9.50;99.90;;;;;;6199366;23;20177;-96
2023/06/02 10:29:54;;;;;;;4.67;1.57;;;9.50;99.90;;;;;;6191233;23;20173;-96
2023/06/02 10:32:36;;;;;;;5.77;1.90;;;9.50;99.90;;;;;;6191069;23;20275;-95
2023/06/02 10:35:11;;;;;;;5.93;1.90;;;9.50;99.90;;;;;;6191343;23;20249;-96
2023/06/02 10:37:48;;;;;;;4.50;1.50;;;9.50;99.90;;;;;;6191662;23;20173;-95
2023/06/02 10:40:44;;;;;;;4.53;1.67;;;9.50;99.90;;;;;;6192603;23;20196;-96
2023/06/02 10:43:18;;;;;;;5.27;1.67;;;9.50;99.90;;;;;;6191046;23;20507;-95
2023/06/02 10:45:51;;;;;;;3.77;1.57;;;9.50;99.90;;;;;;6190728;23;20525;-95
2023/06/02 10:48:46;;;;;;;4.13;1.83;;;9.50;99.90;;;;;;6190857;23;20484;-96
2023/06/02 10:51:19;;;;;;;3.40;1.57;;;9.50;99.90;;;;;;6168468;23;20181;-95
2023/06/02 10:54:18;;;;;;;4.27;1.43;;;9.50;99.90;;;;;;6191795;23;20235;-95
2023/06/02 10:56:56;;;;;;;3.30;1.50;;;9.50;99.90;;;;;;6204718;23;20189;-95
2023/06/02 10:59:37;;;;;;;3.57;1.43;;;9.40;99.90;;;;;;6210202;23;20164;-95
2023/06/02 11:02:13;;;;;;;3.20;1.87;;;9.40;99.90;;;;;;6209457;23;20171;-95
2023/06/02 11:04:53;;;;;;;3.60;1.60;;;9.40;99.90;;;;;;6210779;23;20188;-95
2023/06/02 11:07:26;;;;;;;3.70;1.57;;;9.40;99.90;;;;;;6206479;23;20231;-95
2023/06/02 11:10:03;;;;;;;4.13;1.67;;;9.40;99.90;;;;;;6191967;23;20563;-94
2023/06/02 11:13:13;;;;;;;4.63;1.67;;;9.40;99.90;;;;;;6193393;23;20652;-96
2023/06/02 11:16:21;;;;;;;3.77;1.77;;;9.40;99.90;;;;;;6192250;23;20191;-95
2023/06/02 11:18:53;;;;;;;4.03;1.90;;;9.40;99.90;;;;;;6206128;23;20177;-95
2023/06/02 11:21:29;;;;;;;3.63;1.70;;;9.40;99.90;;;;;;6210886;23;20177;-94
2023/06/02 11:24:05;;;;;;;4.10;1.50;;;9.40;99.90;;;;;;6205972;23;20197;-94
2023/06/02 11:26:53;;;;;;;5.03;1.70;;;9.40;99.90;;;;;;6195866;23;20655;-96
2023/06/02 11:29:26;;;;;;;5.60;2.17;;;9.40;99.90;;;;;;6168367;23;20200;-94
2023/06/02 11:32:00;;;;;;;4.10;1.80;;;9.30;99.90;;;;;;6168857;23;20257;-94
2023/06/02 11:34:36;;;;;;;6.20;1.57;;;9.30;99.90;;;;;;6167556;23;20193;-96
2023/06/02 11:37:20;;;;;;;2.47;1.40;;;9.30;99.90;;;;;;6192545;23;20176;-95
2023/06/02 11:39:54;;;;;;;7.60;1.70;;;9.20;99.90;;;;;;6191968;23;20183;-96
2023/06/02 11:42:44;;;;;;;5.77;1.70;;;9.30;99.90;;;;;;6192354;23;20176;-95
2023/06/02 11:45:24;;;;;;;7.03;1.40;;;9.30;99.90;;;;;;6192355;23;20204;-95
2023/06/02 11:48:05;;;;;;;5.33;1.70;;;9.20;99.90;;;;;;6167543;23;20192;-95
2023/06/02 11:50:37;;;;;;;4.10;1.40;;;9.20;99.90;;;;;;6194228;23;20173;-96
2023/06/02 11:53:14;;;;;;;5.37;1.40;;;9.30;99.90;;;;;;6204874;23;20177;-96
2023/06/02 11:55:47;;;;;;;5.33;1.70;;;9.20;99.90;;;;;;6207292;23;20183;-95
2023/06/02 11:58:27;;;;;;;3.03;1.40;;;9.20;99.90;;;;;;6203728;23;20177;-94
2023/06/02 12:01:09;;;;;;;7.17;2.20;;;9.20;99.90;;;;;;6205534;23;20196;-93
2023/06/02 12:03:42;;;;;;;3.87;1.40;;;9.10;99.90;;;;;;6178504;23;20191;-95
2023/06/02 12:06:21;;;;;;;5.30;1.60;;;9.10;99.90;;;;;;6200507;23;20223;-96
2023/06/02 12:08:52;;;;;;;3.93;1.40;;;9.20;99.90;;;;;;6194566;23;20192;-95
2023/06/02 12:11:25;;;;;;;5.77;2.00;;;9.20;99.90;;;;;;6205024;23;20252;-95
2023/06/02 12:14:04;;;;;;;7.13;2.00;;;9.20;99.90;;;;;;6211573;23;20197;-94
2023/06/02 12:16:38;;;;;;;6.87;1.77;;;9.20;99.90;;;;;;6211658;23;20157;-94
2023/06/02 12:19:19;;;;;;;5.10;1.80;;;9.20;99.90;;;;;;6205915;23;20184;-94
2023/06/02 12:21:53;;;;;;;8.00;1.60;;;9.20;99.90;;;;;;6203754;23;20198;-96
2023/06/02 12:24:33;;;;;;;4.60;2.00;;;9.20;99.90;;;;;;6201021;23;20228;-95
2023/06/02 12:27:05;;;;;;;2.90;1.30;;;9.20;99.90;;;;;;6197459;23;20173;-96
2023/06/02 12:29:39;;;;;;;4.83;1.73;;;9.20;99.90;;;;;;6191833;23;20224;-95
2023/06/02 12:32:12;;;;;;;5.33;1.40;;;9.20;99.90;;;;;;6192932;23;20279;-95
2023/06/02 12:34:44;;;;;;;3.23;1.60;;;9.20;99.90;;;;;;6190601;23;20177;-96
2023/06/02 12:37:24;;;;;;;4.00;1.43;;;9.20;99.90;;;;;;6190772;23;20638;-95
2023/06/02 12:39:56;;;;;;;4.63;1.40;;;9.20;99.90;;;;;;6190640;23;20224;-94
2023/06/02 12:42:27;;;;;;;5.63;1.40;;;9.20;99.90;;;;;;6191082;23;20235;-94
2023/06/02 12:45:01;;;;;;;5.80;1.83;;;9.30;99.90;;;;;;6189576;23;20256;-94
2023/06/02 12:47:33;;;;;;;4.10;1.60;;;9.30;99.90;;;;;;6191188;23;20177;-94
2023/06/02 12:50:08;;;;;;;3.30;1.50;;;9.30;99.90;;;;;;6190975;23;20233;-96
2023/06/02 12:52:40;;;;;;;3.77;1.50;;;9.30;99.90;;;;;;6190655;23;20183;-94
2023/06/02 12:55:14;;;;;;;3.10;1.63;;;9.30;99.90;;;;;;6190245;23;20180;-94
2023/06/02 12:57:47;;;;;;;4.60;1.30;;;9.30;99.90;;;;;;6191603;23;20211;-95
2023/06/02 13:00:22;;;;;;;4.27;1.03;;;9.30;99.90;;;;;;6191501;23;20173;-95
2023/06/02 13:02:54;;;;;;;3.00;1.30;;;9.40;99.90;;;;;;6191353;23;20177;-94
2023/06/02 13:05:27;;;;;;;5.33;1.53;;;9.40;99.90;;;;;;6191291;23;20510;-94
2023/06/02 13:08:00;;;;;;;3.33;1.50;;;9.40;99.90;;;;;;6190242;23;20176;-95
2023/06/02 13:10:32;;;;;;;4.27;1.40;;;9.30;99.90;;;;;;6192398;23;20231;-93
2023/06/02 13:13:05;;;;;;;3.33;1.20;;;9.30;99.90;;;;;;6191762;23;20200;-95
2023/06/02 13:15:40;;;;;;;3.57;1.50;;;9.30;99.90;;;;;;6191656;23;20184;-96
2023/06/02 13:18:12;;;;;;;5.00;1.70;;;9.40;99.90;;;;;;6191563;23;20173;-95
2023/06/02 13:20:44;;;;;;;4.47;1.77;;;9.40;99.90;;;;;;6199644;23;20184;-93
2023/06/02 13:23:17;;;;;;;4.03;1.20;;;9.40;99.90;;;;;;6195457;23;20252;-95
2023/06/02 13:25:51;;;;;;;4.43;1.60;;;9.50;99.90;;;;;;6210666;23;20184;-94
2023/06/02 13:28:22;;;;;;;3.83;1.50;;;9.50;99.90;;;;;;6209598;23;20319;-95
2023/06/02 13:30:59;;;;;;;4.17;1.50;;;9.50;99.90;;;;;;6199780;23;20200;-95
2023/06/02 13:33:33;;;;;;;3.57;1.40;;;9.50;99.90;;;;;;6193536;23;20207;-94
2023/06/02 13:36:07;;;;;;;4.47;1.73;;;9.60;99.90;;;;;;6193298;23;20193;-95
2023/06/02 13:38:39;;;;;;;2.97;1.30;;;9.60;99.90;;;;;;6192888;23;20640;-96
2023/06/02 13:41:12;;;;;;;4.33;1.60;;;9.60;99.90;;;;;;6194667;23;20624;-95
2023/06/02 13:46:57;;;;;;;6.33;1.80;;;9.70;99.90;;;;;;6195910;23;20242;-95
2023/06/02 13:49:31;;;;;;;4.70;1.67;;;9.80;99.90;;;;;;6190618;23;20192;-95
2023/06/02 13:52:04;;;;;;;4.73;1.43;;;9.90;99.90;;;;;;6165938;23;20184;-95
2023/06/02 13:54:37;;;;;;;6.53;1.87;;;10.00;99.90;;;;;;6195178;23;20169;-95
2023/06/02 13:57:15;;;;;;;3.90;1.90;;;10.00;99.90;;;;;;6199604;23;20227;-95
2023/06/02 13:59:48;;;;;;;3.37;1.30;;;10.00;99.90;;;;;;6191258;23;20196;-93
2023/06/02 14:02:22;;;;;;;5.80;1.57;;;10.10;99.90;;;;;;6194207;23;20256;-94
2023/06/02 14:04:57;;;;;;;3.50;1.40;;;10.20;99.90;;;;;;6191128;23;20177;-95
2023/06/02 14:07:29;;;;;;;5.63;1.30;;;10.30;99.90;;;;;;6192498;23;20223;-95
2023/06/02 14:10:04;;;;;;;4.20;1.40;;;10.30;99.90;;;;;;6191132;23;20180;-96
2023/06/02 14:15:20;;;;;;;9.83;1.50;;;10.40;99.90;;;;;;6192124;23;20177;-95